Terminal Aerodrome Forecast
Issued by NWS Sterling, VA

Current Version | Previous Version | Graphics & Text | Print | Product List | Glossary On
Versions: 1 2 3 4 5 6 7 8 9 10 11 12 13 14 15 16 17 18 19 20 21 22
000
FTUS41 KLWX 171100
TAFIAD
TAF
KIAD 171136Z 1712/1818 28006KT P6SM SCT020 SCT040
     FM171500 30012G20KT P6SM SCT040
     FM172300 30009KT P6SM FEW100
     FM180400 29008KT P6SM SCT030 SCT100
     FM181500 30011G18KT P6SM SCT200=

USA.gov is the U.S. government's official web portal to all federal, state and local government web resources and services.